sensor_id;sensor_type;location;lat;lon;timestamp;pressure;altitude;pressure_sealevel;temperature;humidity
6833;BME280;3454;42.654;23.378;2024-03-23T00:55:35;63035.69;;;1.15;68.03
6833;BME280;3454;42.654;23.378;2024-03-23T00:58:01;63038.31;;;1.22;68.27
6833;BME280;3454;42.654;23.378;2024-03-23T01:00:26;63043.50;;;1.25;66.70
6833;BME280;3454;42.654;23.378;2024-03-23T01:02:52;63024.53;;;1.07;67.06
6833;BME280;3454;42.654;23.378;2024-03-23T01:05:17;63020.50;;;1.01;67.31
6833;BME280;3454;42.654;23.378;2024-03-23T01:07:43;63020.19;;;1.03;67.78
6833;BME280;3454;42.654;23.378;2024-03-23T01:10:09;63018.13;;;0.97;66.69
6833;BME280;3454;42.654;23.378;2024-03-23T01:12:34;62988.00;;;0.71;68.55
6833;BME280;3454;42.654;23.378;2024-03-23T01:15:00;62994.75;;;0.79;67.99
6833;BME280;3454;42.654;23.378;2024-03-23T01:17:26;63003.41;;;0.88;68.25
6833;BME280;3454;42.654;23.378;2024-03-23T01:19:52;62997.44;;;0.82;67.76
6833;BME280;3454;42.654;23.378;2024-03-23T01:22:18;62993.13;;;0.78;68.90
6833;BME280;3454;42.654;23.378;2024-03-23T01:24:44;62988.00;;;0.71;67.29
6833;BME280;3454;42.654;23.378;2024-03-23T01:27:10;63007.72;;;0.92;66.63
6833;BME280;3454;42.654;23.378;2024-03-23T01:29:35;62995.84;;;0.80;65.65
6833;BME280;3454;42.654;23.378;2024-03-23T01:32:01;62983.34;;;0.69;65.71
6833;BME280;3454;42.654;23.378;2024-03-23T01:34:27;62973.63;;;0.60;66.53
6833;BME280;3454;42.654;23.378;2024-03-23T01:36:53;62967.97;;;0.52;67.14
6833;BME280;3454;42.654;23.378;2024-03-23T01:39:19;62950.66;;;0.36;69.04
6833;BME280;3454;42.654;23.378;2024-03-23T01:41:44;62930.06;;;0.17;69.38
6833;BME280;3454;42.654;23.378;2024-03-23T01:44:10;62901.06;;;-0.08;71.07
6833;BME280;3454;42.654;23.378;2024-03-23T01:46:37;62888.63;;;-0.19;72.27
6833;BME280;3454;42.654;23.378;2024-03-23T01:49:04;62881.06;;;-0.26;73.42
6833;BME280;3454;42.654;23.378;2024-03-23T01:51:30;62869.47;;;-0.39;74.86
6833;BME280;3454;42.654;23.378;2024-03-23T01:53:58;62861.06;;;-0.45;75.23
6833;BME280;3454;42.654;23.378;2024-03-23T01:56:29;62872.19;;;-0.37;74.24
6833;BME280;3454;42.654;23.378;2024-03-23T01:58:55;62875.41;;;-0.34;74.86
6833;BME280;3454;42.654;23.378;2024-03-23T02:01:21;62874.03;;;-0.33;75.80
6833;BME280;3454;42.654;23.378;2024-03-23T02:03:47;62868.38;;;-0.40;75.76
6833;BME280;3454;42.654;23.378;2024-03-23T02:06:12;62864.28;;;-0.42;75.77
6833;BME280;3454;42.654;23.378;2024-03-23T02:08:39;62868.91;;;-0.40;75.06
6833;BME280;3454;42.654;23.378;2024-03-23T02:11:05;62855.41;;;-0.52;76.35
6833;BME280;3454;42.654;23.378;2024-03-23T02:13:30;62845.13;;;-0.62;76.59
6833;BME280;3454;42.654;23.378;2024-03-23T02:15:57;62849.13;;;-0.56;76.95
6833;BME280;3454;42.654;23.378;2024-03-23T02:18:23;62861.34;;;-0.47;76.84
6833;BME280;3454;42.654;23.378;2024-03-23T02:20:49;62865.13;;;-0.43;76.32
6833;BME280;3454;42.654;23.378;2024-03-23T02:23:15;62864.59;;;-0.44;77.04
6833;BME280;3454;42.654;23.378;2024-03-23T02:25:42;62875.97;;;-0.33;76.41
6833;BME280;3454;42.654;23.378;2024-03-23T02:28:08;62872.19;;;-0.37;76.65
6833;BME280;3454;42.654;23.378;2024-03-23T02:30:33;62864.28;;;-0.42;76.61
6833;BME280;3454;42.654;23.378;2024-03-23T02:32:59;62857.56;;;-0.50;77.06
6833;BME280;3454;42.654;23.378;2024-03-23T02:35:25;62851.63;;;-0.56;78.39
6833;BME280;3454;42.654;23.378;2024-03-23T02:37:51;62849.44;;;-0.58;78.99
6833;BME280;3454;42.654;23.378;2024-03-23T02:40:20;62881.34;;;-0.28;78.88
6833;BME280;3454;42.654;23.378;2024-03-23T02:42:46;62904.41;;;-0.09;77.08
6833;BME280;3454;42.654;23.378;2024-03-23T02:45:12;62920.88;;;0.09;75.69
6833;BME280;3454;42.654;23.378;2024-03-23T02:47:37;62905.16;;;-0.06;76.13
6833;BME280;3454;42.654;23.378;2024-03-23T02:50:03;62903.25;;;-0.06;74.83
6833;BME280;3454;42.654;23.378;2024-03-23T02:52:29;62897.59;;;-0.13;74.00
6833;BME280;3454;42.654;23.378;2024-03-23T02:54:55;62877.03;;;-0.32;74.34
6833;BME280;3454;42.654;23.378;2024-03-23T02:57:20;62900.31;;;-0.11;75.36
6833;BME280;3454;42.654;23.378;2024-03-23T02:59:46;62923.03;;;0.11;74.09
6833;BME280;3454;42.654;23.378;2024-03-23T03:02:13;62930.63;;;0.18;73.71
6833;BME280;3454;42.654;23.378;2024-03-23T03:04:39;62944.38;;;0.33;71.66
6833;BME280;3454;42.654;23.378;2024-03-23T03:07:06;62943.84;;;0.32;70.23
6833;BME280;3454;42.654;23.378;2024-03-23T03:09:32;62930.31;;;0.20;69.93
6833;BME280;3454;42.654;23.378;2024-03-23T03:11:58;62945.78;;;0.32;69.40
6833;BME280;3454;42.654;23.378;2024-03-23T03:14:24;62946.84;;;0.33;70.00
6833;BME280;3454;42.654;23.378;2024-03-23T03:16:49;62963.88;;;0.51;70.68
6833;BME280;3454;42.654;23.378;2024-03-23T03:19:15;62977.94;;;0.64;70.02
6833;BME280;3454;42.654;23.378;2024-03-23T03:21:42;62967.88;;;0.57;67.51
6833;BME280;3454;42.654;23.378;2024-03-23T03:24:08;62966.88;;;0.51;66.55
6833;BME280;3454;42.654;23.378;2024-03-23T03:26:34;62955.75;;;0.43;68.01
6833;BME280;3454;42.654;23.378;2024-03-23T03:28:59;62961.47;;;0.46;68.83
6833;BME280;3454;42.654;23.378;2024-03-23T03:31:26;62967.75;;;0.50;68.20
6833;BME280;3454;42.654;23.378;2024-03-23T03:33:51;62976.09;;;0.60;67.77
6833;BME280;3454;42.654;23.378;2024-03-23T03:36:17;62983.34;;;0.69;65.94
6833;BME280;3454;42.654;23.378;2024-03-23T03:38:43;62969.06;;;0.53;65.46
6833;BME280;3454;42.654;23.378;2024-03-23T03:41:09;62987.38;;;0.75;65.96
6833;BME280;3454;42.654;23.378;2024-03-23T03:43:34;62996.34;;;0.81;64.79
6833;BME280;3454;42.654;23.378;2024-03-23T03:46:02;63014.00;;;0.95;63.64
6833;BME280;3454;42.654;23.378;2024-03-23T03:48:28;63018.34;;;0.99;63.64
6833;BME280;3454;42.654;23.378;2024-03-23T03:50:54;63007.81;;;0.87;61.94
6833;BME280;3454;42.654;23.378;2024-03-23T03:53:20;63009.66;;;0.91;62.04
6833;BME280;3454;42.654;23.378;2024-03-23T03:55:46;62948.19;;;0.36;61.93
6833;BME280;3454;42.654;23.378;2024-03-23T03:58:12;62984.75;;;0.68;63.17
6833;BME280;3454;42.654;23.378;2024-03-23T04:00:38;62936.81;;;0.26;63.59
6833;BME280;3454;42.654;23.378;2024-03-23T04:03:04;62927.59;;;0.17;64.86
6833;BME280;3454;42.654;23.378;2024-03-23T04:05:29;62916.00;;;0.04;66.37
6833;BME280;3454;42.654;23.378;2024-03-23T04:07:56;62898.16;;;-0.13;67.59
6833;BME280;3454;42.654;23.378;2024-03-23T04:10:21;62881.59;;;-0.26;70.14
6833;BME280;3454;42.654;23.378;2024-03-23T04:12:47;62875.41;;;-0.34;70.20
6833;BME280;3454;42.654;23.378;2024-03-23T04:15:13;62858.66;;;-0.49;71.36
6833;BME280;3454;42.654;23.378;2024-03-23T04:17:38;62819.72;;;-0.86;72.65
6833;BME280;3454;42.654;23.378;2024-03-23T04:20:04;62813.78;;;-0.91;73.76
6833;BME280;3454;42.654;23.378;2024-03-23T04:22:35;62827.28;;;-0.78;74.61
6833;BME280;3454;42.654;23.378;2024-03-23T04:25:00;62802.72;;;-1.04;74.03
6833;BME280;3454;42.654;23.378;2024-03-23T04:27:35;62778.88;;;-1.21;75.47
6833;BME280;3454;42.654;23.378;2024-03-23T04:30:00;62756.16;;;-1.42;77.24
6833;BME280;3454;42.654;23.378;2024-03-23T04:32:27;62758.31;;;-1.40;78.69
6833;BME280;3454;42.654;23.378;2024-03-23T04:34:53;62762.97;;;-1.38;78.31
6833;BME280;3454;42.654;23.378;2024-03-23T04:37:20;62791.84;;;-1.09;78.01
6833;BME280;3454;42.654;23.378;2024-03-23T04:39:46;62806.97;;;-0.95;78.77
6833;BME280;3454;42.654;23.378;2024-03-23T04:42:14;63093.13;;;1.68;100.00
6833;BME280;3454;42.654;23.378;2024-03-23T04:44:40;62970.91;;;0.57;79.86
6833;BME280;3454;42.654;23.378;2024-03-23T04:47:05;62933.09;;;0.18;78.89
6833;BME280;3454;42.654;23.378;2024-03-23T04:49:31;62907.88;;;-0.04;79.12
6833;BME280;3454;42.654;23.378;2024-03-23T04:52:06;62878.88;;;-0.28;80.29
6833;BME280;3454;42.654;23.378;2024-03-23T04:54:32;62858.09;;;-0.50;81.58
6833;BME280;3454;42.654;23.378;2024-03-23T04:56:58;62852.91;;;-0.52;82.32
6833;BME280;3454;42.654;23.378;2024-03-23T04:59:24;62842.97;;;-0.64;82.18
6833;BME280;3454;42.654;23.378;2024-03-23T05:01:56;62820.78;;;-0.85;82.76
6833;BME280;3454;42.654;23.378;2024-03-23T05:04:23;62822.13;;;-0.81;83.31
6833;BME280;3454;42.654;23.378;2024-03-23T05:06:48;62818.84;;;-0.84;84.19
6833;BME280;3454;42.654;23.378;2024-03-23T05:09:14;62837.00;;;-0.69;83.75
6833;BME280;3454;42.654;23.378;2024-03-23T05:11:41;62853.22;;;-0.54;82.66
6833;BME280;3454;42.654;23.378;2024-03-23T05:14:14;62844.28;;;-0.60;82.46
6833;BME280;3454;42.654;23.378;2024-03-23T05:16:40;62858.09;;;-0.50;86.08
6833;BME280;3454;42.654;23.378;2024-03-23T05:19:06;62892.19;;;-0.18;83.25
6833;BME280;3454;42.654;23.378;2024-03-23T05:21:31;62903.00;;;-0.08;81.58
6833;BME280;3454;42.654;23.378;2024-03-23T05:23:57;62900.84;;;-0.10;83.55
6833;BME280;3454;42.654;23.378;2024-03-23T05:26:23;62901.38;;;-0.10;80.42
6833;BME280;3454;42.654;23.378;2024-03-23T05:28:48;62919.25;;;0.07;81.57
6833;BME280;3454;42.654;23.378;2024-03-23T05:31:27;62913.75;;;0.07;79.82
6833;BME280;3454;42.654;23.378;2024-03-23T05:33:53;62913.00;;;0.04;80.09
6833;BME280;3454;42.654;23.378;2024-03-23T05:36:20;62929.31;;;0.14;80.41
6833;BME280;3454;42.654;23.378;2024-03-23T05:38:45;62934.88;;;0.26;78.80
6833;BME280;3454;42.654;23.378;2024-03-23T05:41:11;62964.72;;;0.49;78.18
6833;BME280;3454;42.654;23.378;2024-03-23T05:43:36;62985.84;;;0.69;77.76
6833;BME280;3454;42.654;23.378;2024-03-23T05:46:03;63003.47;;;0.83;75.38
6833;BME280;3454;42.654;23.378;2024-03-23T05:48:30;62995.03;;;0.77;74.51
6833;BME280;3454;42.654;23.378;2024-03-23T05:50:56;62996.34;;;0.81;74.41
6833;BME280;3454;42.654;23.378;2024-03-23T05:53:24;62999.06;;;0.83;73.76
6833;BME280;3454;42.654;23.378;2024-03-23T05:55:50;63013.47;;;0.95;73.96
6833;BME280;3454;42.654;23.378;2024-03-23T05:58:19;63004.25;;;0.86;72.89
6833;BME280;3454;42.654;23.378;2024-03-23T06:00:48;62990.16;;;0.73;74.18
6833;BME280;3454;42.654;23.378;2024-03-23T06:03:13;62989.09;;;0.72;75.65
6833;BME280;3454;42.654;23.378;2024-03-23T06:05:39;63016.72;;;0.98;74.76
6833;BME280;3454;42.654;23.378;2024-03-23T06:08:05;63035.47;;;1.13;75.40
6833;BME280;3454;42.654;23.378;2024-03-23T06:10:31;63048.69;;;1.27;74.16
6833;BME280;3454;42.654;23.378;2024-03-23T06:12:57;63054.09;;;1.32;72.80
6833;BME280;3454;42.654;23.378;2024-03-23T06:15:24;63053.88;;;1.30;71.34
6833;BME280;3454;42.654;23.378;2024-03-23T06:17:50;63027.00;;;1.07;71.04
6833;BME280;3454;42.654;23.378;2024-03-23T06:20:15;63015.09;;;0.96;72.74
6833;BME280;3454;42.654;23.378;2024-03-23T06:22:41;63016.16;;;0.97;74.66
6833;BME280;3454;42.654;23.378;2024-03-23T06:25:07;63046.50;;;1.25;74.06
6833;BME280;3454;42.654;23.378;2024-03-23T06:27:33;63073.31;;;1.52;74.60
6833;BME280;3454;42.654;23.378;2024-03-23T06:30:00;63099.34;;;1.77;74.48
6833;BME280;3454;42.654;23.378;2024-03-23T06:32:27;63117.53;;;1.91;72.27
6833;BME280;3454;42.654;23.378;2024-03-23T06:34:52;63132.41;;;2.07;69.03
6833;BME280;3454;42.654;23.378;2024-03-23T06:37:18;63120.25;;;1.94;67.89
6833;BME280;3454;42.654;23.378;2024-03-23T06:39:46;63119.94;;;1.96;69.43
6833;BME280;3454;42.654;23.378;2024-03-23T06:42:12;63127.28;;;2.00;68.86
6833;BME280;3454;42.654;23.378;2024-03-23T06:44:38;63126.53;;;1.97;68.52
6833;BME280;3454;42.654;23.378;2024-03-23T06:47:05;63149.00;;;2.20;68.95
6833;BME280;3454;42.654;23.378;2024-03-23T06:49:31;63170.94;;;2.43;69.62
6833;BME280;3454;42.654;23.378;2024-03-23T06:51:56;63169.31;;;2.41;69.83
6833;BME280;3454;42.654;23.378;2024-03-23T06:54:22;63158.53;;;2.27;72.24
6833;BME280;3454;42.654;23.378;2024-03-23T06:56:50;63166.91;;;2.37;73.57
6833;BME280;3454;42.654;23.378;2024-03-23T06:59:16;63189.38;;;2.60;72.49
6833;BME280;3454;42.654;23.378;2024-03-23T07:01:41;63224.75;;;2.88;71.49
6833;BME280;3454;42.654;23.378;2024-03-23T07:04:07;63207.63;;;2.75;68.26
6833;BME280;3454;42.654;23.378;2024-03-23T07:06:33;63201.63;;;2.69;70.03
6833;BME280;3454;42.654;23.378;2024-03-23T07:08:59;63210.31;;;2.77;69.61
6833;BME280;3454;42.654;23.378;2024-03-23T07:11:24;63203.72;;;2.76;68.10
6833;BME280;3454;42.654;23.378;2024-03-23T07:13:51;63217.94;;;2.84;68.44
6833;BME280;3454;42.654;23.378;2024-03-23T07:16:18;63218.47;;;2.85;68.34
6833;BME280;3454;42.654;23.378;2024-03-23T07:18:43;63224.69;;;2.93;68.28
6833;BME280;3454;42.654;23.378;2024-03-23T07:21:09;63240.19;;;3.05;68.84
6833;BME280;3454;42.654;23.378;2024-03-23T07:23:35;63247.47;;;3.14;69.10
6833;BME280;3454;42.654;23.378;2024-03-23T07:26:04;63266.78;;;3.29;68.70
6833;BME280;3454;42.654;23.378;2024-03-23T07:28:34;63276.25;;;3.40;68.13
6833;BME280;3454;42.654;23.378;2024-03-23T07:31:08;63322.75;;;3.81;67.49
6833;BME280;3454;42.654;23.378;2024-03-23T07:33:37;63330.28;;;3.93;67.69
6833;BME280;3454;42.654;23.378;2024-03-23T07:36:03;63358.00;;;4.18;65.17
6833;BME280;3454;42.654;23.378;2024-03-23T07:38:30;63373.00;;;4.30;64.54
6833;BME280;3454;42.654;23.378;2024-03-23T07:41:09;63381.69;;;4.38;64.34
6833;BME280;3454;42.654;23.378;2024-03-23T07:43:38;63392.91;;;4.46;63.40
6833;BME280;3454;42.654;23.378;2024-03-23T07:46:06;63391.47;;;4.47;63.91
6833;BME280;3454;42.654;23.378;2024-03-23T07:48:32;63392.56;;;4.48;67.11
6833;BME280;3454;42.654;23.378;2024-03-23T07:53:56;63399.41;;;4.52;65.33
6833;BME280;3454;42.654;23.378;2024-03-23T07:56:22;63363.44;;;4.23;63.16
6833;BME280;3454;42.654;23.378;2024-03-23T07:58:48;63389.06;;;4.43;64.68
6833;BME280;3454;42.654;23.378;2024-03-23T08:01:16;63372.53;;;4.25;62.54
6833;BME280;3454;42.654;23.378;2024-03-23T08:03:45;63362.44;;;4.18;63.26
6833;BME280;3454;42.654;23.378;2024-03-23T08:06:13;63390.94;;;4.47;63.76
6833;BME280;3454;42.654;23.378;2024-03-23T08:08:39;63355.06;;;4.13;64.40
6833;BME280;3454;42.654;23.378;2024-03-23T08:11:05;63367.31;;;4.22;64.41
6833;BME280;3454;42.654;23.378;2024-03-23T08:13:32;63371.16;;;4.26;63.39
6833;BME280;3454;42.654;23.378;2024-03-23T08:16:01;63378.44;;;4.35;63.16
6833;BME280;3454;42.654;23.378;2024-03-23T08:18:28;63381.69;;;4.38;63.14
6833;BME280;3454;42.654;23.378;2024-03-23T08:23:30;63413.22;;;4.67;63.03
6833;BME280;3454;42.654;23.378;2024-03-23T08:25:58;63429.00;;;4.82;61.85
6833;BME280;3454;42.654;23.378;2024-03-23T08:28:24;63521.22;;;5.69;65.12
6833;BME280;3454;42.654;23.378;2024-03-23T08:30:50;63509.31;;;5.54;57.59
6833;BME280;3454;42.654;23.378;2024-03-23T08:33:16;63496.25;;;5.42;55.13
6833;BME280;3454;42.654;23.378;2024-03-23T08:35:42;63491.06;;;5.39;57.83
6833;BME280;3454;42.654;23.378;2024-03-23T08:38:08;63460.56;;;5.11;56.76
6833;BME280;3454;42.654;23.378;2024-03-23T08:40:34;63503.03;;;5.50;57.62
6833;BME280;3454;42.654;23.378;2024-03-23T08:43:00;63515.84;;;5.60;56.69
6833;BME280;3454;42.654;23.378;2024-03-23T08:45:25;63517.72;;;5.64;56.48
6833;BME280;3454;42.654;23.378;2024-03-23T08:47:51;63567.53;;;6.12;56.74
6833;BME280;3454;42.654;23.378;2024-03-23T08:50:17;63585.59;;;6.24;55.37
6833;BME280;3454;42.654;23.378;2024-03-23T08:52:44;63589.63;;;6.30;54.27
6833;BME280;3454;42.654;23.378;2024-03-23T08:55:10;63627.03;;;6.62;55.02
6833;BME280;3454;42.654;23.378;2024-03-23T08:57:35;63683.41;;;7.17;53.08
6833;BME280;3454;42.654;23.378;2024-03-23T09:00:02;63689.19;;;7.20;51.34
6833;BME280;3454;42.654;23.378;2024-03-23T09:02:28;63687.97;;;7.23;51.38
6833;BME280;3454;42.654;23.378;2024-03-23T09:04:53;63728.91;;;7.61;52.44
6833;BME280;3454;42.654;23.378;2024-03-23T09:07:19;63784.56;;;8.12;52.15
6833;BME280;3454;42.654;23.378;2024-03-23T09:09:45;63808.16;;;8.29;49.05
6833;BME280;3454;42.654;23.378;2024-03-23T09:12:10;63802.69;;;8.24;49.27
6833;BME280;3454;42.654;23.378;2024-03-23T09:14:36;63813.84;;;8.37;50.65
6833;BME280;3454;42.654;23.378;2024-03-23T09:17:02;63849.56;;;8.72;47.35
6833;BME280;3454;42.654;23.378;2024-03-23T09:19:30;63899.06;;;9.15;47.53
6833;BME280;3454;42.654;23.378;2024-03-23T09:21:57;63940.81;;;9.56;44.70
6833;BME280;3454;42.654;23.378;2024-03-23T09:24:23;63976.16;;;9.86;45.03
6833;BME280;3454;42.654;23.378;2024-03-23T09:26:48;63974.72;;;9.87;43.98
6833;BME280;3454;42.654;23.378;2024-03-23T09:29:14;63964.88;;;9.78;42.53
6833;BME280;3454;42.654;23.378;2024-03-23T09:31:40;64012.28;;;10.20;42.56
6833;BME280;3454;42.654;23.378;2024-03-23T09:34:06;64047.50;;;10.54;43.22
6833;BME280;3454;42.654;23.378;2024-03-23T09:36:31;64043.78;;;10.46;43.59
6833;BME280;3454;42.654;23.378;2024-03-23T09:38:57;64081.22;;;10.83;42.67
6833;BME280;3454;42.654;23.378;2024-03-23T09:41:23;64105.31;;;11.05;41.20
6833;BME280;3454;42.654;23.378;2024-03-23T09:43:48;64096.97;;;11.02;40.64
6833;BME280;3454;42.654;23.378;2024-03-23T09:46:17;64114.84;;;11.16;39.13
6833;BME280;3454;42.654;23.378;2024-03-23T09:48:43;64122.50;;;11.23;40.47
6833;BME280;3454;42.654;23.378;2024-03-23T09:51:12;64152.06;;;11.50;40.99
6833;BME280;3454;42.654;23.378;2024-03-23T09:53:37;64218.19;;;12.09;39.07
6833;BME280;3454;42.654;23.378;2024-03-23T09:56:22;64242.53;;;12.33;38.83
6833;BME280;3454;42.654;23.378;2024-03-23T09:58:49;64271.03;;;12.59;39.22
6833;BME280;3454;42.654;23.378;2024-03-23T10:01:14;64296.06;;;12.80;38.64
6833;BME280;3454;42.654;23.378;2024-03-23T10:03:47;64232.09;;;12.24;38.21
6833;BME280;3454;42.654;23.378;2024-03-23T10:06:13;64270.69;;;12.61;38.52
6833;BME280;3454;42.654;23.378;2024-03-23T10:08:38;64327.88;;;13.09;37.79
6833;BME280;3454;42.654;23.378;2024-03-23T10:11:14;64337.44;;;13.20;36.95
6833;BME280;3454;42.654;23.378;2024-03-23T10:13:43;64367.59;;;13.48;37.55
6833;BME280;3454;42.654;23.378;2024-03-23T10:16:09;64419.56;;;13.93;36.78
6833;BME280;3454;42.654;23.378;2024-03-23T10:18:39;64388.13;;;13.69;35.45
6833;BME280;3454;42.654;23.378;2024-03-23T10:23:31;64346.22;;;13.28;35.28
6833;BME280;3454;42.654;23.378;2024-03-23T10:26:17;64322.63;;;13.07;36.01
6833;BME280;3454;42.654;23.378;2024-03-23T10:31:28;64300.44;;;12.84;37.09
6833;BME280;3454;42.654;23.378;2024-03-23T10:33:54;64320.09;;;13.07;35.61
6833;BME280;3454;42.654;23.378;2024-03-23T10:36:23;64381.34;;;13.61;35.44
6833;BME280;3454;42.654;23.378;2024-03-23T10:38:50;64414.06;;;13.88;34.59
6833;BME280;3454;42.654;23.378;2024-03-23T10:41:18;64340.19;;;13.23;33.66
6833;BME280;3454;42.654;23.378;2024-03-23T10:43:48;64426.34;;;14.02;33.97
6833;BME280;3454;42.654;23.378;2024-03-23T10:46:14;64460.41;;;14.33;35.23
6833;BME280;3454;42.654;23.378;2024-03-23T10:48:40;64484.38;;;14.53;34.61
6833;BME280;3454;42.654;23.378;2024-03-23T10:51:08;64460.97;;;14.34;34.44
6833;BME280;3454;42.654;23.378;2024-03-23T10:53:35;64531.53;;;15.00;33.98
6833;BME280;3454;42.654;23.378;2024-03-23T10:56:02;64567.25;;;15.33;33.36
6833;BME280;3454;42.654;23.378;2024-03-23T10:58:35;64549.44;;;15.14;32.97
6833;BME280;3454;42.654;23.378;2024-03-23T11:01:02;64607.22;;;15.67;32.00
6833;BME280;3454;42.654;23.378;2024-03-23T11:06:00;64653.97;;;16.10;32.61
6833;BME280;3454;42.654;23.378;2024-03-23T11:11:18;64573.66;;;15.37;31.20
6833;BME280;3454;42.654;23.378;2024-03-23T11:13:48;64589.63;;;15.51;30.73
6833;BME280;3454;42.654;23.378;2024-03-23T11:16:22;64620.94;;;15.80;30.25
6833;BME280;3454;42.654;23.378;2024-03-23T11:18:49;64653.44;;;16.10;30.40
6833;BME280;3454;42.654;23.378;2024-03-23T11:21:52;64687.19;;;16.43;30.44
6833;BME280;3454;42.654;23.378;2024-03-23T11:24:36;64734.00;;;16.86;30.96
6833;BME280;3454;42.654;23.378;2024-03-23T11:27:15;64702.97;;;16.55;30.06
6833;BME280;3454;42.654;23.378;2024-03-23T11:29:41;64695.25;;;16.48;30.51
6833;BME280;3454;42.654;23.378;2024-03-23T11:32:09;64673.03;;;16.25;30.06
6833;BME280;3454;42.654;23.378;2024-03-23T11:34:35;64749.78;;;16.98;30.64
6833;BME280;3454;42.654;23.378;2024-03-23T11:37:05;64754.72;;;17.02;29.09
6833;BME280;3454;42.654;23.378;2024-03-23T11:39:32;64703.31;;;16.53;30.08
6833;BME280;3454;42.654;23.378;2024-03-23T11:41:57;64724.44;;;16.74;29.47
6833;BME280;3454;42.654;23.378;2024-03-23T11:44:25;64755.47;;;17.05;29.36
6833;BME280;3454;42.654;23.378;2024-03-23T11:46:51;64789.09;;;17.36;29.63
6833;BME280;3454;42.654;23.378;2024-03-23T11:51:48;64811.16;;;17.56;28.25
6833;BME280;3454;42.654;23.378;2024-03-23T11:54:13;64789.28;;;17.38;28.92
6833;BME280;3454;42.654;23.378;2024-03-23T11:56:39;64799.88;;;17.43;28.25
6833;BME280;3454;42.654;23.378;2024-03-23T11:59:06;64713.75;;;16.62;29.03
6833;BME280;3454;42.654;23.378;2024-03-23T12:01:31;64711.44;;;16.65;29.00
6833;BME280;3454;42.654;23.378;2024-03-23T12:03:57;64810.41;;;17.53;29.25
6833;BME280;3454;42.654;23.378;2024-03-23T12:06:23;64826.91;;;17.68;29.07
6833;BME280;3454;42.654;23.378;2024-03-23T12:08:48;64888.66;;;18.24;29.03
6833;BME280;3454;42.654;23.378;2024-03-23T12:11:17;64940.38;;;18.76;28.68
6833;BME280;3454;42.654;23.378;2024-03-23T12:13:44;64892.19;;;18.30;28.56
6833;BME280;3454;42.654;23.378;2024-03-23T12:16:19;64913.50;;;18.47;29.07
6833;BME280;3454;42.654;23.378;2024-03-23T12:18:49;64962.25;;;18.94;27.65
6833;BME280;3454;42.654;23.378;2024-03-23T12:21:15;64952.66;;;18.83;27.83
6833;BME280;3454;42.654;23.378;2024-03-23T12:23:42;64838.50;;;17.79;27.60
6833;BME280;3454;42.654;23.378;2024-03-23T12:26:10;64814.47;;;17.59;28.99
6833;BME280;3454;42.654;23.378;2024-03-23T12:28:37;64862.75;;;18.01;27.42
6833;BME280;3454;42.654;23.378;2024-03-23T12:31:03;64832.97;;;17.74;28.49
6833;BME280;3454;42.654;23.378;2024-03-23T12:33:28;64838.72;;;17.81;28.86
6833;BME280;3454;42.654;23.378;2024-03-23T12:35:55;64868.28;;;18.06;28.63
6833;BME280;3454;42.654;23.378;2024-03-23T12:38:20;64830.22;;;17.71;28.95
6833;BME280;3454;42.654;23.378;2024-03-23T12:40:47;64887.56;;;18.23;29.71
6833;BME280;3454;42.654;23.378;2024-03-23T12:43:13;64958.38;;;18.90;29.01
6833;BME280;3454;42.654;23.378;2024-03-23T12:45:39;64905.94;;;18.42;27.83
6833;BME280;3454;42.654;23.378;2024-03-23T12:48:06;64973.84;;;19.04;27.49
6833;BME280;3454;42.654;23.378;2024-03-23T12:50:32;65039.53;;;19.64;26.13
6833;BME280;3454;42.654;23.378;2024-03-23T12:52:58;65056.44;;;19.77;26.58
6833;BME280;3454;42.654;23.378;2024-03-23T12:55:23;65122.41;;;20.40;26.42
6833;BME280;3454;42.654;23.378;2024-03-23T12:57:49;65148.91;;;20.64;25.37
6833;BME280;3454;42.654;23.378;2024-03-23T13:00:14;65187.94;;;20.97;25.16
6833;BME280;3454;42.654;23.378;2024-03-23T13:02:44;65168.59;;;20.79;24.90
6833;BME280;3454;42.654;23.378;2024-03-23T13:05:09;65164.94;;;20.78;24.89
6833;BME280;3454;42.654;23.378;2024-03-23T13:07:35;65153.34;;;20.68;25.76
6833;BME280;3454;42.654;23.378;2024-03-23T13:10:03;65161.63;;;20.75;24.17
6833;BME280;3454;42.654;23.378;2024-03-23T13:12:29;65093.09;;;20.13;24.24
6833;BME280;3454;42.654;23.378;2024-03-23T13:14:54;64991.28;;;19.18;23.81
6833;BME280;3454;42.654;23.378;2024-03-23T13:17:20;65020.78;;;19.47;23.81
6833;BME280;3454;42.654;23.378;2024-03-23T13:19:46;65067.50;;;19.87;22.97
6833;BME280;3454;42.654;23.378;2024-03-23T13:22:11;65095.88;;;20.16;23.38
6833;BME280;3454;42.654;23.378;2024-03-23T13:24:37;65106.72;;;20.23;23.22
6833;BME280;3454;42.654;23.378;2024-03-23T13:27:04;65160.31;;;20.72;23.89
6833;BME280;3454;42.654;23.378;2024-03-23T13:29:33;65197.38;;;21.06;23.14
6833;BME280;3454;42.654;23.378;2024-03-23T13:32:00;65233.31;;;21.38;22.96
6833;BME280;3454;42.654;23.378;2024-03-23T13:34:26;65230.75;;;21.38;23.83
6833;BME280;3454;42.654;23.378;2024-03-23T13:36:51;65244.03;;;21.50;23.24
6833;BME280;3454;42.654;23.378;2024-03-23T13:39:17;65213.63;;;21.23;22.14
6833;BME280;3454;42.654;23.378;2024-03-23T13:41:44;65163.28;;;20.77;22.38
6833;BME280;3454;42.654;23.378;2024-03-23T13:44:11;65111.69;;;20.28;22.05
6833;BME280;3454;42.654;23.378;2024-03-23T13:46:40;65124.41;;;20.39;22.49
6833;BME280;3454;42.654;23.378;2024-03-23T13:49:18;65144.28;;;20.57;22.68
6833;BME280;3454;42.654;23.378;2024-03-23T13:51:46;64999.75;;;19.28;24.81
6833;BME280;3454;42.654;23.378;2024-03-23T13:54:12;65066.38;;;19.86;23.79
6833;BME280;3454;42.654;23.378;2024-03-23T13:56:38;65132.13;;;20.46;23.79
6833;BME280;3454;42.654;23.378;2024-03-23T13:59:04;65152.56;;;20.65;22.52
6833;BME280;3454;42.654;23.378;2024-03-23T14:01:29;65203.44;;;21.11;23.48
6833;BME280;3454;42.654;23.378;2024-03-23T14:03:55;65270.16;;;21.69;24.01
6833;BME280;3454;42.654;23.378;2024-03-23T14:06:21;65264.50;;;21.69;23.42
6833;BME280;3454;42.654;23.378;2024-03-23T14:08:46;65307.66;;;22.08;23.75
6833;BME280;3454;42.654;23.378;2024-03-23T14:11:14;65294.94;;;21.97;22.86
6833;BME280;3454;42.654;23.378;2024-03-23T14:13:40;65282.00;;;21.83;23.61
6833;BME280;3454;42.654;23.378;2024-03-23T14:16:06;65343.28;;;22.43;22.37
6833;BME280;3454;42.654;23.378;2024-03-23T14:18:31;65381.63;;;22.73;23.09
6833;BME280;3454;42.654;23.378;2024-03-23T14:20:59;65332.56;;;22.31;21.96
6833;BME280;3454;42.654;23.378;2024-03-23T14:23:29;65371.34;;;22.66;21.92
6833;BME280;3454;42.654;23.378;2024-03-23T14:25:56;65381.63;;;22.73;22.17